sensor_id;sensor_type;location;lat;lon;timestamp;P1;durP1;ratioP1;P2;durP2;ratioP2
47483;SDS011;54076;50.322;18.650;2022-10-18T00:02:25;22.50;;;10.50;;
47483;SDS011;54076;50.322;18.650;2022-10-18T00:07:26;23.60;;;10.10;;
47483;SDS011;54076;50.322;18.650;2022-10-18T00:12:27;21.40;;;10.00;;
47483;SDS011;54076;50.322;18.650;2022-10-18T00:17:28;25.30;;;10.80;;
47483;SDS011;54076;50.322;18.650;2022-10-18T00:22:29;18.60;;;10.30;;
47483;SDS011;54076;50.322;18.650;2022-10-18T00:27:31;19.10;;;9.60;;
47483;SDS011;54076;50.322;18.650;2022-10-18T00:32:36;19.20;;;9.40;;
47483;SDS011;54076;50.322;18.650;2022-10-18T00:37:38;20.60;;;10.70;;
47483;SDS011;54076;50.322;18.650;2022-10-18T00:42:39;20.20;;;10.10;;
47483;SDS011;54076;50.322;18.650;2022-10-18T00:47:40;23.00;;;10.70;;
47483;SDS011;54076;50.322;18.650;2022-10-18T00:52:51;20.80;;;10.90;;
47483;SDS011;54076;50.322;18.650;2022-10-18T00:57:54;21.00;;;10.80;;
47483;SDS011;54076;50.322;18.650;2022-10-18T01:02:57;20.80;;;10.90;;
47483;SDS011;54076;50.322;18.650;2022-10-18T01:08:31;21.80;;;9.70;;
47483;SDS011;54076;50.322;18.650;2022-10-18T01:35:20;17.50;;;9.00;;
47483;SDS011;54076;50.322;18.650;2022-10-18T01:40:26;20.60;;;9.80;;
47483;SDS011;54076;50.322;18.650;2022-10-18T01:45:29;20.10;;;9.70;;
47483;SDS011;54076;50.322;18.650;2022-10-18T01:50:33;18.90;;;9.60;;
47483;SDS011;54076;50.322;18.650;2022-10-18T01:55:36;22.00;;;10.50;;
47483;SDS011;54076;50.322;18.650;2022-10-18T02:00:42;19.70;;;9.30;;
47483;SDS011;54076;50.322;18.650;2022-10-18T02:11:01;18.60;;;9.40;;
47483;SDS011;54076;50.322;18.650;2022-10-18T02:16:27;18.70;;;9.10;;
47483;SDS011;54076;50.322;18.650;2022-10-18T02:21:31;21.00;;;9.70;;
47483;SDS011;54076;50.322;18.650;2022-10-18T02:26:33;17.40;;;9.00;;
47483;SDS011;54076;50.322;18.650;2022-10-18T02:31:43;20.00;;;9.10;;
47483;SDS011;54076;50.322;18.650;2022-10-18T02:36:53;16.60;;;9.00;;
47483;SDS011;54076;50.322;18.650;2022-10-18T02:41:57;18.00;;;9.10;;
47483;SDS011;54076;50.322;18.650;2022-10-18T02:47:00;18.60;;;10.20;;
47483;SDS011;54076;50.322;18.650;2022-10-18T02:52:01;18.50;;;9.40;;
47483;SDS011;54076;50.322;18.650;2022-10-18T02:57:02;23.10;;;9.40;;
47483;SDS011;54076;50.322;18.650;2022-10-18T03:02:03;18.70;;;8.50;;
47483;SDS011;54076;50.322;18.650;2022-10-18T03:07:04;19.10;;;8.50;;
47483;SDS011;54076;50.322;18.650;2022-10-18T03:12:05;17.60;;;8.60;;
47483;SDS011;54076;50.322;18.650;2022-10-18T03:17:06;22.50;;;8.80;;
47483;SDS011;54076;50.322;18.650;2022-10-18T03:22:07;18.20;;;8.10;;
47483;SDS011;54076;50.322;18.650;2022-10-18T03:27:08;17.90;;;9.20;;
47483;SDS011;54076;50.322;18.650;2022-10-18T03:32:09;15.40;;;8.30;;
47483;SDS011;54076;50.322;18.650;2022-10-18T03:37:10;15.30;;;8.30;;
47483;SDS011;54076;50.322;18.650;2022-10-18T03:42:11;18.40;;;8.20;;
47483;SDS011;54076;50.322;18.650;2022-10-18T03:47:12;20.40;;;8.50;;
47483;SDS011;54076;50.322;18.650;2022-10-18T03:52:13;15.50;;;8.10;;
47483;SDS011;54076;50.322;18.650;2022-10-18T03:57:14;15.50;;;8.40;;
47483;SDS011;54076;50.322;18.650;2022-10-18T04:02:15;19.30;;;8.90;;
47483;SDS011;54076;50.322;18.650;2022-10-18T04:07:17;15.30;;;8.60;;
47483;SDS011;54076;50.322;18.650;2022-10-18T04:12:18;18.50;;;7.90;;
47483;SDS011;54076;50.322;18.650;2022-10-18T04:17:19;18.30;;;8.40;;
47483;SDS011;54076;50.322;18.650;2022-10-18T04:22:19;17.10;;;8.40;;
47483;SDS011;54076;50.322;18.650;2022-10-18T04:27:21;16.50;;;7.80;;
47483;SDS011;54076;50.322;18.650;2022-10-18T04:32:22;17.70;;;8.50;;
47483;SDS011;54076;50.322;18.650;2022-10-18T04:37:23;16.90;;;7.80;;
47483;SDS011;54076;50.322;18.650;2022-10-18T04:42:24;17.40;;;8.30;;
47483;SDS011;54076;50.322;18.650;2022-10-18T04:47:25;19.00;;;9.20;;
47483;SDS011;54076;50.322;18.650;2022-10-18T04:52:26;17.40;;;9.20;;
47483;SDS011;54076;50.322;18.650;2022-10-18T04:57:27;13.90;;;7.40;;
47483;SDS011;54076;50.322;18.650;2022-10-18T05:02:28;14.00;;;7.10;;
47483;SDS011;54076;50.322;18.650;2022-10-18T05:07:29;15.20;;;6.60;;
47483;SDS011;54076;50.322;18.650;2022-10-18T05:12:30;13.80;;;6.40;;
47483;SDS011;54076;50.322;18.650;2022-10-18T05:17:31;12.90;;;6.20;;
47483;SDS011;54076;50.322;18.650;2022-10-18T05:22:32;13.40;;;7.30;;
47483;SDS011;54076;50.322;18.650;2022-10-18T05:27:33;12.30;;;7.20;;
47483;SDS011;54076;50.322;18.650;2022-10-18T05:32:34;14.10;;;6.40;;
47483;SDS011;54076;50.322;18.650;2022-10-18T05:37:35;12.50;;;6.40;;
47483;SDS011;54076;50.322;18.650;2022-10-18T05:42:36;14.30;;;7.20;;
47483;SDS011;54076;50.322;18.650;2022-10-18T05:47:36;18.20;;;7.20;;
47483;SDS011;54076;50.322;18.650;2022-10-18T05:52:37;13.50;;;6.30;;
47483;SDS011;54076;50.322;18.650;2022-10-18T05:57:38;14.10;;;6.90;;
47483;SDS011;54076;50.322;18.650;2022-10-18T06:02:39;15.50;;;6.00;;
47483;SDS011;54076;50.322;18.650;2022-10-18T06:07:40;14.00;;;6.80;;
47483;SDS011;54076;50.322;18.650;2022-10-18T06:12:41;13.40;;;6.80;;
47483;SDS011;54076;50.322;18.650;2022-10-18T06:17:42;12.60;;;6.30;;
47483;SDS011;54076;50.322;18.650;2022-10-18T06:22:43;14.00;;;6.10;;
47483;SDS011;54076;50.322;18.650;2022-10-18T06:27:43;16.00;;;6.10;;
47483;SDS011;54076;50.322;18.650;2022-10-18T06:32:44;13.20;;;5.50;;
47483;SDS011;54076;50.322;18.650;2022-10-18T06:37:45;9.40;;;5.20;;
47483;SDS011;54076;50.322;18.650;2022-10-18T06:42:46;13.50;;;5.30;;
47483;SDS011;54076;50.322;18.650;2022-10-18T06:47:48;11.40;;;5.50;;
47483;SDS011;54076;50.322;18.650;2022-10-18T06:52:51;14.60;;;5.60;;
47483;SDS011;54076;50.322;18.650;2022-10-18T06:57:52;10.00;;;4.90;;
47483;SDS011;54076;50.322;18.650;2022-10-18T07:02:53;9.80;;;5.00;;
47483;SDS011;54076;50.322;18.650;2022-10-18T07:07:54;11.50;;;5.10;;
47483;SDS011;54076;50.322;18.650;2022-10-18T07:12:55;10.10;;;4.90;;
47483;SDS011;54076;50.322;18.650;2022-10-18T07:17:56;9.70;;;4.90;;
47483;SDS011;54076;50.322;18.650;2022-10-18T07:22:57;12.40;;;5.20;;
47483;SDS011;54076;50.322;18.650;2022-10-18T07:27:59;13.10;;;5.60;;
47483;SDS011;54076;50.322;18.650;2022-10-18T07:33:00;12.90;;;4.80;;
47483;SDS011;54076;50.322;18.650;2022-10-18T07:38:01;11.10;;;5.50;;
47483;SDS011;54076;50.322;18.650;2022-10-18T07:43:02;11.60;;;4.70;;
47483;SDS011;54076;50.322;18.650;2022-10-18T07:48:04;9.80;;;5.20;;
47483;SDS011;54076;50.322;18.650;2022-10-18T07:53:05;13.40;;;4.80;;
47483;SDS011;54076;50.322;18.650;2022-10-18T07:58:06;12.60;;;4.90;;
47483;SDS011;54076;50.322;18.650;2022-10-18T08:03:07;11.30;;;5.00;;
47483;SDS011;54076;50.322;18.650;2022-10-18T08:08:08;11.10;;;5.50;;
47483;SDS011;54076;50.322;18.650;2022-10-18T08:13:09;8.60;;;5.10;;
47483;SDS011;54076;50.322;18.650;2022-10-18T08:18:10;9.20;;;5.00;;
47483;SDS011;54076;50.322;18.650;2022-10-18T08:23:11;10.80;;;5.30;;
47483;SDS011;54076;50.322;18.650;2022-10-18T08:28:12;8.20;;;4.50;;
47483;SDS011;54076;50.322;18.650;2022-10-18T08:33:13;11.50;;;4.80;;
47483;SDS011;54076;50.322;18.650;2022-10-18T08:38:14;11.90;;;5.30;;
47483;SDS011;54076;50.322;18.650;2022-10-18T08:43:24;8.30;;;4.80;;
47483;SDS011;54076;50.322;18.650;2022-10-18T08:48:41;9.00;;;5.10;;
47483;SDS011;54076;50.322;18.650;2022-10-18T08:53:55;12.10;;;4.90;;
47483;SDS011;54076;50.322;18.650;2022-10-18T08:59:38;12.50;;;5.50;;
47483;SDS011;54076;50.322;18.650;2022-10-18T09:04:48;13.00;;;5.20;;
47483;SDS011;54076;50.322;18.650;2022-10-18T09:10:26;12.20;;;4.50;;
47483;SDS011;54076;50.322;18.650;2022-10-18T09:15:47;10.90;;;4.50;;
47483;SDS011;54076;50.322;18.650;2022-10-18T09:20:59;9.90;;;4.80;;
47483;SDS011;54076;50.322;18.650;2022-10-18T09:26:11;7.90;;;4.60;;
47483;SDS011;54076;50.322;18.650;2022-10-18T09:36:42;9.20;;;4.60;;
47483;SDS011;54076;50.322;18.650;2022-10-18T09:41:50;14.30;;;5.10;;
47483;SDS011;54076;50.322;18.650;2022-10-18T09:52:14;10.60;;;4.60;;
47483;SDS011;54076;50.322;18.650;2022-10-18T09:57:31;8.40;;;5.00;;
47483;SDS011;54076;50.322;18.650;2022-10-18T10:02:36;9.10;;;4.90;;
47483;SDS011;54076;50.322;18.650;2022-10-18T10:07:41;10.30;;;5.00;;
47483;SDS011;54076;50.322;18.650;2022-10-18T10:12:43;9.80;;;4.70;;
47483;SDS011;54076;50.322;18.650;2022-10-18T10:18:02;11.90;;;5.00;;
47483;SDS011;54076;50.322;18.650;2022-10-18T10:34:45;13.10;;;4.90;;
47483;SDS011;54076;50.322;18.650;2022-10-18T10:40:03;13.90;;;5.00;;
47483;SDS011;54076;50.322;18.650;2022-10-18T10:45:20;11.10;;;5.40;;
47483;SDS011;54076;50.322;18.650;2022-10-18T10:50:25;9.70;;;4.90;;
47483;SDS011;54076;50.322;18.650;2022-10-18T10:55:32;8.90;;;4.70;;
47483;SDS011;54076;50.322;18.650;2022-10-18T11:00:39;12.80;;;4.60;;
47483;SDS011;54076;50.322;18.650;2022-10-18T11:05:45;12.50;;;5.30;;
47483;SDS011;54076;50.322;18.650;2022-10-18T11:11:01;12.40;;;5.40;;
47483;SDS011;54076;50.322;18.650;2022-10-18T11:21:37;11.30;;;5.50;;
47483;SDS011;54076;50.322;18.650;2022-10-18T11:26:49;10.60;;;4.90;;
47483;SDS011;54076;50.322;18.650;2022-10-18T11:48:49;7.90;;;5.00;;
47483;SDS011;54076;50.322;18.650;2022-10-18T12:04:34;9.50;;;4.90;;
47483;SDS011;54076;50.322;18.650;2022-10-18T12:09:40;10.80;;;5.20;;
47483;SDS011;54076;50.322;18.650;2022-10-18T12:14:49;10.70;;;5.00;;
47483;SDS011;54076;50.322;18.650;2022-10-18T12:20:04;11.50;;;5.70;;
47483;SDS011;54076;50.322;18.650;2022-10-18T12:25:15;11.20;;;5.30;;
47483;SDS011;54076;50.322;18.650;2022-10-18T12:36:17;17.30;;;5.90;;
47483;SDS011;54076;50.322;18.650;2022-10-18T12:41:29;10.20;;;5.50;;
47483;SDS011;54076;50.322;18.650;2022-10-18T12:46:59;10.70;;;5.20;;
47483;SDS011;54076;50.322;18.650;2022-10-18T12:52:23;8.80;;;5.40;;
47483;SDS011;54076;50.322;18.650;2022-10-18T12:57:59;10.70;;;5.60;;
47483;SDS011;54076;50.322;18.650;2022-10-18T13:08:40;12.80;;;6.00;;
47483;SDS011;54076;50.322;18.650;2022-10-18T13:31:02;12.60;;;6.40;;
47483;SDS011;54076;50.322;18.650;2022-10-18T13:36:19;10.70;;;6.50;;
47483;SDS011;54076;50.322;18.650;2022-10-18T13:41:30;12.20;;;5.80;;
47483;SDS011;54076;50.322;18.650;2022-10-18T13:52:25;12.40;;;7.20;;
47483;SDS011;54076;50.322;18.650;2022-10-18T14:13:47;11.90;;;6.60;;
47483;SDS011;54076;50.322;18.650;2022-10-18T14:18:57;13.90;;;7.20;;
47483;SDS011;54076;50.322;18.650;2022-10-18T14:24:20;14.40;;;7.40;;
47483;SDS011;54076;50.322;18.650;2022-10-18T14:29:23;13.90;;;7.20;;
47483;SDS011;54076;50.322;18.650;2022-10-18T14:34:24;13.00;;;7.10;;
47483;SDS011;54076;50.322;18.650;2022-10-18T14:39:26;16.20;;;7.60;;
47483;SDS011;54076;50.322;18.650;2022-10-18T14:44:30;15.20;;;7.40;;
47483;SDS011;54076;50.322;18.650;2022-10-18T14:49:41;13.40;;;7.10;;
47483;SDS011;54076;50.322;18.650;2022-10-18T14:54:44;15.80;;;7.70;;
47483;SDS011;54076;50.322;18.650;2022-10-18T14:59:57;16.50;;;7.80;;
47483;SDS011;54076;50.322;18.650;2022-10-18T15:05:17;15.90;;;7.20;;
47483;SDS011;54076;50.322;18.650;2022-10-18T15:10:28;17.60;;;8.70;;
47483;SDS011;54076;50.322;18.650;2022-10-18T15:15:32;21.30;;;8.40;;
47483;SDS011;54076;50.322;18.650;2022-10-18T15:20:36;16.10;;;8.10;;
47483;SDS011;54076;50.322;18.650;2022-10-18T15:25:42;14.40;;;8.10;;
47483;SDS011;54076;50.322;18.650;2022-10-18T15:30:43;15.50;;;8.40;;
47483;SDS011;54076;50.322;18.650;2022-10-18T15:35:44;21.20;;;8.60;;
47483;SDS011;54076;50.322;18.650;2022-10-18T15:40:45;16.00;;;8.40;;
47483;SDS011;54076;50.322;18.650;2022-10-18T15:45:47;17.00;;;8.70;;
47483;SDS011;54076;50.322;18.650;2022-10-18T15:50:55;17.40;;;9.10;;
47483;SDS011;54076;50.322;18.650;2022-10-18T15:56:05;17.00;;;8.60;;
47483;SDS011;54076;50.322;18.650;2022-10-18T16:01:32;18.20;;;8.00;;
47483;SDS011;54076;50.322;18.650;2022-10-18T16:06:36;15.50;;;9.00;;
47483;SDS011;54076;50.322;18.650;2022-10-18T16:11:38;16.60;;;9.00;;
47483;SDS011;54076;50.322;18.650;2022-10-18T16:16:39;19.10;;;9.00;;
47483;SDS011;54076;50.322;18.650;2022-10-18T16:21:41;17.50;;;8.90;;
47483;SDS011;54076;50.322;18.650;2022-10-18T16:26:42;17.30;;;9.40;;
47483;SDS011;54076;50.322;18.650;2022-10-18T16:31:43;18.10;;;9.60;;
47483;SDS011;54076;50.322;18.650;2022-10-18T16:36:46;17.70;;;9.60;;
47483;SDS011;54076;50.322;18.650;2022-10-18T16:41:47;17.00;;;9.70;;
47483;SDS011;54076;50.322;18.650;2022-10-18T16:46:48;21.40;;;10.40;;
47483;SDS011;54076;50.322;18.650;2022-10-18T16:51:53;18.80;;;9.80;;
47483;SDS011;54076;50.322;18.650;2022-10-18T16:56:54;20.90;;;11.20;;
47483;SDS011;54076;50.322;18.650;2022-10-18T17:01:55;25.60;;;11.00;;
47483;SDS011;54076;50.322;18.650;2022-10-18T17:06:57;21.80;;;10.40;;
47483;SDS011;54076;50.322;18.650;2022-10-18T17:11:58;17.80;;;9.50;;
47483;SDS011;54076;50.322;18.650;2022-10-18T17:16:59;16.70;;;9.20;;
47483;SDS011;54076;50.322;18.650;2022-10-18T17:22:00;20.50;;;9.90;;
47483;SDS011;54076;50.322;18.650;2022-10-18T17:27:01;18.50;;;9.80;;
47483;SDS011;54076;50.322;18.650;2022-10-18T17:32:02;27.00;;;14.70;;
47483;SDS011;54076;50.322;18.650;2022-10-18T17:37:03;17.20;;;10.00;;
47483;SDS011;54076;50.322;18.650;2022-10-18T17:42:05;19.30;;;10.20;;
47483;SDS011;54076;50.322;18.650;2022-10-18T17:47:06;21.20;;;10.80;;
47483;SDS011;54076;50.322;18.650;2022-10-18T17:52:07;37.20;;;16.50;;
47483;SDS011;54076;50.322;18.650;2022-10-18T17:57:08;29.40;;;13.10;;
47483;SDS011;54076;50.322;18.650;2022-10-18T18:02:12;22.90;;;11.00;;
47483;SDS011;54076;50.322;18.650;2022-10-18T18:07:12;25.30;;;11.00;;
47483;SDS011;54076;50.322;18.650;2022-10-18T18:12:13;25.70;;;12.30;;
47483;SDS011;54076;50.322;18.650;2022-10-18T18:17:14;20.20;;;10.60;;
47483;SDS011;54076;50.322;18.650;2022-10-18T18:22:15;23.10;;;10.60;;
47483;SDS011;54076;50.322;18.650;2022-10-18T18:27:16;20.80;;;10.80;;
47483;SDS011;54076;50.322;18.650;2022-10-18T18:32:17;19.10;;;10.20;;
47483;SDS011;54076;50.322;18.650;2022-10-18T18:37:18;13.00;;;6.60;;
47483;SDS011;54076;50.322;18.650;2022-10-18T18:42:19;10.20;;;5.60;;
47483;SDS011;54076;50.322;18.650;2022-10-18T18:47:22;8.60;;;3.80;;
47483;SDS011;54076;50.322;18.650;2022-10-18T18:52:23;7.40;;;3.90;;
47483;SDS011;54076;50.322;18.650;2022-10-18T18:57:24;5.40;;;2.90;;
47483;SDS011;54076;50.322;18.650;2022-10-18T19:02:25;8.50;;;3.10;;
47483;SDS011;54076;50.322;18.650;2022-10-18T19:07:26;5.70;;;2.80;;
47483;SDS011;54076;50.322;18.650;2022-10-18T19:12:27;4.90;;;2.20;;
47483;SDS011;54076;50.322;18.650;2022-10-18T19:17:27;4.00;;;1.90;;
47483;SDS011;54076;50.322;18.650;2022-10-18T19:22:29;4.50;;;1.70;;
47483;SDS011;54076;50.322;18.650;2022-10-18T19:27:30;4.60;;;2.00;;
47483;SDS011;54076;50.322;18.650;2022-10-18T19:32:31;5.10;;;2.00;;
47483;SDS011;54076;50.322;18.650;2022-10-18T19:37:32;4.20;;;1.80;;
47483;SDS011;54076;50.322;18.650;2022-10-18T19:42:33;5.70;;;1.90;;
47483;SDS011;54076;50.322;18.650;2022-10-18T19:47:35;4.20;;;1.90;;
47483;SDS011;54076;50.322;18.650;2022-10-18T19:52:37;6.00;;;2.30;;
47483;SDS011;54076;50.322;18.650;2022-10-18T19:57:38;8.10;;;2.90;;
47483;SDS011;54076;50.322;18.650;2022-10-18T20:02:39;7.50;;;3.20;;
47483;SDS011;54076;50.322;18.650;2022-10-18T20:07:40;6.90;;;2.60;;
47483;SDS011;54076;50.322;18.650;2022-10-18T20:12:43;7.10;;;2.80;;
47483;SDS011;54076;50.322;18.650;2022-10-18T20:17:44;6.40;;;3.00;;
47483;SDS011;54076;50.322;18.650;2022-10-18T20:22:45;6.60;;;2.60;;
47483;SDS011;54076;50.322;18.650;2022-10-18T20:27:45;6.40;;;2.90;;
47483;SDS011;54076;50.322;18.650;2022-10-18T20:32:46;8.40;;;3.50;;
47483;SDS011;54076;50.322;18.650;2022-10-18T20:37:47;13.70;;;3.70;;
47483;SDS011;54076;50.322;18.650;2022-10-18T20:42:50;7.20;;;2.60;;
47483;SDS011;54076;50.322;18.650;2022-10-18T20:47:52;7.70;;;2.20;;
47483;SDS011;54076;50.322;18.650;2022-10-18T20:52:52;6.20;;;2.10;;
47483;SDS011;54076;50.322;18.650;2022-10-18T20:57:54;6.20;;;2.10;;
47483;SDS011;54076;50.322;18.650;2022-10-18T21:02:57;6.00;;;2.30;;
47483;SDS011;54076;50.322;18.650;2022-10-18T21:07:57;4.90;;;2.20;;
47483;SDS011;54076;50.322;18.650;2022-10-18T21:12:59;4.70;;;2.00;;
47483;SDS011;54076;50.322;18.650;2022-10-18T21:17:59;6.80;;;2.70;;
47483;SDS011;54076;50.322;18.650;2022-10-18T21:23:00;4.20;;;2.10;;
47483;SDS011;54076;50.322;18.650;2022-10-18T21:28:01;5.70;;;2.60;;
47483;SDS011;54076;50.322;18.650;2022-10-18T21:33:02;4.80;;;2.30;;
47483;SDS011;54076;50.322;18.650;2022-10-18T21:38:04;9.10;;;2.50;;
47483;SDS011;54076;50.322;18.650;2022-10-18T21:43:05;5.50;;;2.50;;
47483;SDS011;54076;50.322;18.650;2022-10-18T21:48:06;6.30;;;2.60;;
47483;SDS011;54076;50.322;18.650;2022-10-18T21:53:07;5.10;;;2.40;;
47483;SDS011;54076;50.322;18.650;2022-10-18T21:58:08;5.50;;;2.60;;
47483;SDS011;54076;50.322;18.650;2022-10-18T22:03:10;7.70;;;3.00;;
47483;SDS011;54076;50.322;18.650;2022-10-18T22:08:12;5.80;;;2.60;;
47483;SDS011;54076;50.322;18.650;2022-10-18T22:13:13;5.40;;;2.60;;
47483;SDS011;54076;50.322;18.650;2022-10-18T22:18:15;6.40;;;2.50;;
47483;SDS011;54076;50.322;18.650;2022-10-18T22:23:17;6.10;;;3.00;;
47483;SDS011;54076;50.322;18.650;2022-10-18T22:28:20;5.70;;;3.10;;
47483;SDS011;54076;50.322;18.650;2022-10-18T22:33:24;6.60;;;3.10;;
47483;SDS011;54076;50.322;18.650;2022-10-18T22:38:26;5.40;;;3.10;;
47483;SDS011;54076;50.322;18.650;2022-10-18T22:43:27;7.50;;;3.40;;
47483;SDS011;54076;50.322;18.650;2022-10-18T22:48:29;7.70;;;3.20;;
47483;SDS011;54076;50.322;18.650;2022-10-18T22:53:31;6.10;;;3.40;;
47483;SDS011;54076;50.322;18.650;2022-10-18T22:58:33;6.70;;;3.40;;
47483;SDS011;54076;50.322;18.650;2022-10-18T23:03:34;9.40;;;3.70;;
47483;SDS011;54076;50.322;18.650;2022-10-18T23:08:35;6.50;;;3.20;;
47483;SDS011;54076;50.322;18.650;2022-10-18T23:13:36;5.80;;;3.30;;
47483;SDS011;54076;50.322;18.650;2022-10-18T23:18:40;6.10;;;3.40;;
47483;SDS011;54076;50.322;18.650;2022-10-18T23:23:42;7.40;;;3.50;;
47483;SDS011;54076;50.322;18.650;2022-10-18T23:28:45;7.70;;;3.70;;
47483;SDS011;54076;50.322;18.650;2022-10-18T23:33:48;6.90;;;3.70;;
47483;SDS011;54076;50.322;18.650;2022-10-18T23:38:52;9.00;;;3.90;;
47483;SDS011;54076;50.322;18.650;2022-10-18T23:43:53;6.60;;;3.30;;
47483;SDS011;54076;50.322;18.650;2022-10-18T23:48:55;7.10;;;3.70;;
47483;SDS011;54076;50.322;18.650;2022-10-18T23:53:55;7.60;;;4.00;;
47483;SDS011;54076;50.322;18.650;2022-10-18T23:58:56;6.80;;;3.60;;
